sensor_id;sensor_type;location;lat;lon;timestamp;pressure;altitude;pressure_sealevel;temperature
69007;BMP180;56061;51.748;19.620;2023-08-12T00:01:59;99599.80;;;11.70
69007;BMP180;56061;51.748;19.620;2023-08-12T00:04:25;99602.40;;;11.62
69007;BMP180;56061;51.748;19.620;2023-08-12T00:06:51;99597.20;;;11.60
69007;BMP180;56061;51.748;19.620;2023-08-12T00:09:18;99604.40;;;11.60
69007;BMP180;56061;51.748;19.620;2023-08-12T00:11:44;99602.60;;;11.60
69007;BMP180;56061;51.748;19.620;2023-08-12T00:14:11;99604.20;;;11.60
69007;BMP180;56061;51.748;19.620;2023-08-12T00:16:37;99605.00;;;11.60
69007;BMP180;56061;51.748;19.620;2023-08-12T00:19:04;99600.40;;;11.58
69007;BMP180;56061;51.748;19.620;2023-08-12T00:21:30;99604.20;;;11.56
69007;BMP180;56061;51.748;19.620;2023-08-12T00:23:57;99603.40;;;11.50
69007;BMP180;56061;51.748;19.620;2023-08-12T00:26:23;99602.60;;;11.50
69007;BMP180;56061;51.748;19.620;2023-08-12T00:28:50;99604.00;;;11.50
69007;BMP180;56061;51.748;19.620;2023-08-12T00:31:17;99610.00;;;11.50
69007;BMP180;56061;51.748;19.620;2023-08-12T00:33:44;99611.40;;;11.50
69007;BMP180;56061;51.748;19.620;2023-08-12T00:36:10;99606.40;;;11.50
69007;BMP180;56061;51.748;19.620;2023-08-12T00:38:37;99607.60;;;11.50
69007;BMP180;56061;51.748;19.620;2023-08-12T00:41:03;99607.40;;;11.50
69007;BMP180;56061;51.748;19.620;2023-08-12T00:43:30;99604.00;;;11.50
69007;BMP180;56061;51.748;19.620;2023-08-12T00:45:57;99605.00;;;11.50
69007;BMP180;56061;51.748;19.620;2023-08-12T00:48:24;99602.80;;;11.40
69007;BMP180;56061;51.748;19.620;2023-08-12T00:50:51;99602.40;;;11.40
69007;BMP180;56061;51.748;19.620;2023-08-12T00:53:18;99601.60;;;11.40
69007;BMP180;56061;51.748;19.620;2023-08-12T00:55:45;99602.80;;;11.40
69007;BMP180;56061;51.748;19.620;2023-08-12T00:58:12;99599.80;;;11.40
69007;BMP180;56061;51.748;19.620;2023-08-12T01:00:38;99598.00;;;11.40
69007;BMP180;56061;51.748;19.620;2023-08-12T01:03:05;99598.20;;;11.50
69007;BMP180;56061;51.748;19.620;2023-08-12T01:05:33;99600.20;;;11.50
69007;BMP180;56061;51.748;19.620;2023-08-12T01:07:59;99596.00;;;11.46
69007;BMP180;56061;51.748;19.620;2023-08-12T01:10:34;99596.00;;;11.40
69007;BMP180;56061;51.748;19.620;2023-08-12T01:13:28;99598.40;;;11.34
69007;BMP180;56061;51.748;19.620;2023-08-12T01:15:59;99592.60;;;11.30
69007;BMP180;56061;51.748;19.620;2023-08-12T01:18:27;99595.00;;;11.20
69007;BMP180;56061;51.748;19.620;2023-08-12T01:20:55;99597.40;;;11.14
69007;BMP180;56061;51.748;19.620;2023-08-12T01:23:22;99595.60;;;11.10
69007;BMP180;56061;51.748;19.620;2023-08-12T01:25:48;99600.40;;;11.10
69007;BMP180;56061;51.748;19.620;2023-08-12T01:28:15;99597.60;;;11.00
69007;BMP180;56061;51.748;19.620;2023-08-12T01:31:12;99597.40;;;11.00
69007;BMP180;56061;51.748;19.620;2023-08-12T01:36:19;99605.20;;;11.00
69007;BMP180;56061;51.748;19.620;2023-08-12T01:38:51;99598.00;;;10.94
69007;BMP180;56061;51.748;19.620;2023-08-12T01:41:19;99599.20;;;10.98
69007;BMP180;56061;51.748;19.620;2023-08-12T01:43:47;99599.80;;;10.94
69007;BMP180;56061;51.748;19.620;2023-08-12T01:46:14;99600.20;;;10.90
69007;BMP180;56061;51.748;19.620;2023-08-12T01:48:40;99602.80;;;10.90
69007;BMP180;56061;51.748;19.620;2023-08-12T01:51:07;99598.80;;;10.90
69007;BMP180;56061;51.748;19.620;2023-08-12T01:53:33;99603.00;;;10.90
69007;BMP180;56061;51.748;19.620;2023-08-12T01:56:00;99600.20;;;10.90
69007;BMP180;56061;51.748;19.620;2023-08-12T01:58:26;99602.20;;;10.80
69007;BMP180;56061;51.748;19.620;2023-08-12T02:00:53;99597.00;;;10.76
69007;BMP180;56061;51.748;19.620;2023-08-12T02:03:20;99600.80;;;10.70
69007;BMP180;56061;51.748;19.620;2023-08-12T02:05:46;99598.00;;;10.64
69007;BMP180;56061;51.748;19.620;2023-08-12T02:08:13;99591.60;;;10.60
69007;BMP180;56061;51.748;19.620;2023-08-12T02:10:39;99595.20;;;10.60
69007;BMP180;56061;51.748;19.620;2023-08-12T02:13:05;99591.40;;;10.60
69007;BMP180;56061;51.748;19.620;2023-08-12T02:15:32;99596.20;;;10.56
69007;BMP180;56061;51.748;19.620;2023-08-12T02:17:58;99596.20;;;10.58
69007;BMP180;56061;51.748;19.620;2023-08-12T02:20:25;99595.60;;;10.60
69007;BMP180;56061;51.748;19.620;2023-08-12T02:22:52;99596.60;;;10.60
69007;BMP180;56061;51.748;19.620;2023-08-12T02:25:18;99593.40;;;10.60
69007;BMP180;56061;51.748;19.620;2023-08-12T02:27:45;99591.40;;;10.60
69007;BMP180;56061;51.748;19.620;2023-08-12T02:30:11;99588.80;;;10.60
69007;BMP180;56061;51.748;19.620;2023-08-12T02:32:38;99586.60;;;10.60
69007;BMP180;56061;51.748;19.620;2023-08-12T02:35:05;99588.20;;;10.70
69007;BMP180;56061;51.748;19.620;2023-08-12T02:37:32;99596.60;;;10.70
69007;BMP180;56061;51.748;19.620;2023-08-12T02:39:58;99587.00;;;10.70
69007;BMP180;56061;51.748;19.620;2023-08-12T02:42:24;99589.80;;;10.76
69007;BMP180;56061;51.748;19.620;2023-08-12T02:44:51;99592.60;;;10.80
69007;BMP180;56061;51.748;19.620;2023-08-12T02:47:17;99586.00;;;10.80
69007;BMP180;56061;51.748;19.620;2023-08-12T02:49:44;99580.00;;;10.70
69007;BMP180;56061;51.748;19.620;2023-08-12T02:52:10;99577.60;;;10.70
69007;BMP180;56061;51.748;19.620;2023-08-12T02:54:37;99579.40;;;10.60
69007;BMP180;56061;51.748;19.620;2023-08-12T02:57:03;99580.00;;;10.60
69007;BMP180;56061;51.748;19.620;2023-08-12T02:59:30;99583.00;;;10.56
69007;BMP180;56061;51.748;19.620;2023-08-12T03:01:56;99580.40;;;10.50
69007;BMP180;56061;51.748;19.620;2023-08-12T03:04:22;99580.80;;;10.50
69007;BMP180;56061;51.748;19.620;2023-08-12T03:06:49;99579.40;;;10.40
69007;BMP180;56061;51.748;19.620;2023-08-12T03:09:15;99580.80;;;10.40
69007;BMP180;56061;51.748;19.620;2023-08-12T03:11:44;99587.20;;;10.40
69007;BMP180;56061;51.748;19.620;2023-08-12T03:14:11;99586.60;;;10.40
69007;BMP180;56061;51.748;19.620;2023-08-12T03:16:37;99584.20;;;10.40
69007;BMP180;56061;51.748;19.620;2023-08-12T03:19:04;99581.20;;;10.40
69007;BMP180;56061;51.748;19.620;2023-08-12T03:21:30;99583.80;;;10.40
69007;BMP180;56061;51.748;19.620;2023-08-12T03:23:57;99583.00;;;10.40
69007;BMP180;56061;51.748;19.620;2023-08-12T03:26:23;99582.20;;;10.40
69007;BMP180;56061;51.748;19.620;2023-08-12T03:28:50;99585.80;;;10.40
69007;BMP180;56061;51.748;19.620;2023-08-12T03:31:16;99589.20;;;10.40
69007;BMP180;56061;51.748;19.620;2023-08-12T03:33:43;99583.40;;;10.40
69007;BMP180;56061;51.748;19.620;2023-08-12T03:36:10;99578.00;;;10.40
69007;BMP180;56061;51.748;19.620;2023-08-12T03:38:36;99581.20;;;10.40
69007;BMP180;56061;51.748;19.620;2023-08-12T03:41:03;99583.00;;;10.40
69007;BMP180;56061;51.748;19.620;2023-08-12T03:43:30;99581.20;;;10.50
69007;BMP180;56061;51.748;19.620;2023-08-12T03:45:56;99578.20;;;10.50
69007;BMP180;56061;51.748;19.620;2023-08-12T03:48:22;99579.00;;;10.50
69007;BMP180;56061;51.748;19.620;2023-08-12T03:50:49;99580.80;;;10.54
69007;BMP180;56061;51.748;19.620;2023-08-12T03:53:16;99578.40;;;10.60
69007;BMP180;56061;51.748;19.620;2023-08-12T03:55:43;99577.80;;;10.66
69007;BMP180;56061;51.748;19.620;2023-08-12T03:58:10;99581.00;;;10.70
69007;BMP180;56061;51.748;19.620;2023-08-12T04:03:09;99579.60;;;10.88
69007;BMP180;56061;51.748;19.620;2023-08-12T04:08:32;99586.40;;;11.00
69007;BMP180;56061;51.748;19.620;2023-08-12T04:11:00;99582.80;;;11.10
69007;BMP180;56061;51.748;19.620;2023-08-12T04:13:26;99580.60;;;11.12
69007;BMP180;56061;51.748;19.620;2023-08-12T04:15:56;99577.80;;;11.22
69007;BMP180;56061;51.748;19.620;2023-08-12T04:18:23;99567.60;;;11.32
69007;BMP180;56061;51.748;19.620;2023-08-12T04:20:50;99567.60;;;11.40
69007;BMP180;56061;51.748;19.620;2023-08-12T04:23:17;99566.00;;;11.50
69007;BMP180;56061;51.748;19.620;2023-08-12T04:26:03;99573.20;;;11.60
69007;BMP180;56061;51.748;19.620;2023-08-12T04:28:30;99578.40;;;11.70
69007;BMP180;56061;51.748;19.620;2023-08-12T04:30:56;99576.20;;;11.80
69007;BMP180;56061;51.748;19.620;2023-08-12T04:33:23;99572.60;;;11.90
69007;BMP180;56061;51.748;19.620;2023-08-12T04:35:49;99572.80;;;12.00
69007;BMP180;56061;51.748;19.620;2023-08-12T04:38:17;99573.60;;;12.14
69007;BMP180;56061;51.748;19.620;2023-08-12T04:40:55;99569.60;;;12.30
69007;BMP180;56061;51.748;19.620;2023-08-12T04:43:21;99572.60;;;12.40
69007;BMP180;56061;51.748;19.620;2023-08-12T04:45:48;99578.40;;;12.60
69007;BMP180;56061;51.748;19.620;2023-08-12T04:48:15;99584.00;;;12.70
69007;BMP180;56061;51.748;19.620;2023-08-12T04:50:50;99588.60;;;12.80
69007;BMP180;56061;51.748;19.620;2023-08-12T04:53:17;99592.00;;;12.96
69007;BMP180;56061;51.748;19.620;2023-08-12T04:55:43;99583.80;;;13.10
69007;BMP180;56061;51.748;19.620;2023-08-12T04:58:12;99577.80;;;13.20
69007;BMP180;56061;51.748;19.620;2023-08-12T05:00:39;99577.00;;;13.32
69007;BMP180;56061;51.748;19.620;2023-08-12T05:03:08;99581.60;;;13.50
69007;BMP180;56061;51.748;19.620;2023-08-12T05:05:35;99583.80;;;13.66
69007;BMP180;56061;51.748;19.620;2023-08-12T05:08:02;99584.00;;;13.80
69007;BMP180;56061;51.748;19.620;2023-08-12T05:10:28;99582.20;;;13.94
69007;BMP180;56061;51.748;19.620;2023-08-12T05:12:57;99579.80;;;14.10
69007;BMP180;56061;51.748;19.620;2023-08-12T05:15:24;99581.80;;;14.28
69007;BMP180;56061;51.748;19.620;2023-08-12T05:17:54;99581.00;;;14.40
69007;BMP180;56061;51.748;19.620;2023-08-12T05:20:20;99574.20;;;14.60
69007;BMP180;56061;51.748;19.620;2023-08-12T05:22:47;99574.60;;;14.70
69007;BMP180;56061;51.748;19.620;2023-08-12T05:25:14;99572.20;;;14.90
69007;BMP180;56061;51.748;19.620;2023-08-12T05:27:40;99572.20;;;15.00
69007;BMP180;56061;51.748;19.620;2023-08-12T05:30:10;99571.60;;;15.20
69007;BMP180;56061;51.748;19.620;2023-08-12T05:32:44;99570.00;;;15.40
69007;BMP180;56061;51.748;19.620;2023-08-12T05:35:10;99568.20;;;15.50
69007;BMP180;56061;51.748;19.620;2023-08-12T05:37:37;99568.20;;;15.70
69007;BMP180;56061;51.748;19.620;2023-08-12T05:40:04;99570.80;;;15.90
69007;BMP180;56061;51.748;19.620;2023-08-12T05:45:06;99565.20;;;16.20
69007;BMP180;56061;51.748;19.620;2023-08-12T05:47:34;99563.60;;;16.30
69007;BMP180;56061;51.748;19.620;2023-08-12T05:50:01;99567.60;;;16.50
69007;BMP180;56061;51.748;19.620;2023-08-12T05:52:27;99566.40;;;16.60
69007;BMP180;56061;51.748;19.620;2023-08-12T05:54:54;99571.20;;;16.80
69007;BMP180;56061;51.748;19.620;2023-08-12T05:57:21;99569.00;;;17.00
69007;BMP180;56061;51.748;19.620;2023-08-12T05:59:47;99568.00;;;17.10
69007;BMP180;56061;51.748;19.620;2023-08-12T06:02:14;99570.00;;;17.28
69007;BMP180;56061;51.748;19.620;2023-08-12T06:04:41;99568.20;;;17.40
69007;BMP180;56061;51.748;19.620;2023-08-12T06:07:07;99566.00;;;17.50
69007;BMP180;56061;51.748;19.620;2023-08-12T06:09:34;99565.00;;;17.60
69007;BMP180;56061;51.748;19.620;2023-08-12T06:12:01;99566.00;;;17.70
69007;BMP180;56061;51.748;19.620;2023-08-12T06:14:31;99564.20;;;17.80
69007;BMP180;56061;51.748;19.620;2023-08-12T06:17:02;99564.20;;;17.90
69007;BMP180;56061;51.748;19.620;2023-08-12T06:19:28;99563.20;;;18.00
69007;BMP180;56061;51.748;19.620;2023-08-12T06:21:55;99565.00;;;18.12
69007;BMP180;56061;51.748;19.620;2023-08-12T06:24:21;99567.20;;;18.30
69007;BMP180;56061;51.748;19.620;2023-08-12T06:26:48;99572.80;;;18.40
69007;BMP180;56061;51.748;19.620;2023-08-12T06:29:39;99570.60;;;18.50
69007;BMP180;56061;51.748;19.620;2023-08-12T06:32:15;99568.00;;;18.60
69007;BMP180;56061;51.748;19.620;2023-08-12T06:34:41;99560.40;;;18.70
69007;BMP180;56061;51.748;19.620;2023-08-12T06:37:34;99563.40;;;18.80
69007;BMP180;56061;51.748;19.620;2023-08-12T06:40:00;99565.00;;;18.90
69007;BMP180;56061;51.748;19.620;2023-08-12T06:42:27;99557.80;;;19.06
69007;BMP180;56061;51.748;19.620;2023-08-12T06:44:57;99550.60;;;19.20
69007;BMP180;56061;51.748;19.620;2023-08-12T06:47:26;99549.20;;;19.30
69007;BMP180;56061;51.748;19.620;2023-08-12T06:49:54;99556.80;;;19.40
69007;BMP180;56061;51.748;19.620;2023-08-12T06:52:21;99551.80;;;19.50
69007;BMP180;56061;51.748;19.620;2023-08-12T06:54:48;99549.80;;;19.60
69007;BMP180;56061;51.748;19.620;2023-08-12T06:57:14;99548.60;;;19.70
69007;BMP180;56061;51.748;19.620;2023-08-12T06:59:56;99553.40;;;19.80
69007;BMP180;56061;51.748;19.620;2023-08-12T07:02:22;99549.00;;;19.90
69007;BMP180;56061;51.748;19.620;2023-08-12T07:04:49;99545.60;;;20.00
69007;BMP180;56061;51.748;19.620;2023-08-12T07:07:16;99542.40;;;20.10
69007;BMP180;56061;51.748;19.620;2023-08-12T07:09:42;99548.80;;;20.20
69007;BMP180;56061;51.748;19.620;2023-08-12T07:12:12;99542.80;;;20.30
69007;BMP180;56061;51.748;19.620;2023-08-12T07:14:39;99544.20;;;20.40
69007;BMP180;56061;51.748;19.620;2023-08-12T07:17:05;99543.00;;;20.40
69007;BMP180;56061;51.748;19.620;2023-08-12T07:19:32;99546.80;;;20.50
69007;BMP180;56061;51.748;19.620;2023-08-12T07:21:58;99546.40;;;20.60
69007;BMP180;56061;51.748;19.620;2023-08-12T07:24:25;99545.80;;;20.60
69007;BMP180;56061;51.748;19.620;2023-08-12T07:27:02;99544.40;;;20.72
69007;BMP180;56061;51.748;19.620;2023-08-12T07:29:32;99543.00;;;20.80
69007;BMP180;56061;51.748;19.620;2023-08-12T07:31:59;99541.20;;;20.90
69007;BMP180;56061;51.748;19.620;2023-08-12T07:34:25;99541.00;;;21.00
69007;BMP180;56061;51.748;19.620;2023-08-12T07:37:00;99547.80;;;21.10
69007;BMP180;56061;51.748;19.620;2023-08-12T07:39:26;99533.20;;;21.20
69007;BMP180;56061;51.748;19.620;2023-08-12T07:41:53;99534.80;;;21.30
69007;BMP180;56061;51.748;19.620;2023-08-12T07:44:19;99531.00;;;21.30
69007;BMP180;56061;51.748;19.620;2023-08-12T07:46:46;99526.20;;;21.40
69007;BMP180;56061;51.748;19.620;2023-08-12T07:49:33;99525.80;;;21.50
69007;BMP180;56061;51.748;19.620;2023-08-12T07:51:59;99525.40;;;21.60
69007;BMP180;56061;51.748;19.620;2023-08-12T07:57:34;99525.80;;;21.72
69007;BMP180;56061;51.748;19.620;2023-08-12T08:00:00;99530.00;;;21.80
69007;BMP180;56061;51.748;19.620;2023-08-12T08:02:27;99526.40;;;21.80
69007;BMP180;56061;51.748;19.620;2023-08-12T08:04:53;99527.00;;;21.90
69007;BMP180;56061;51.748;19.620;2023-08-12T08:07:24;99523.40;;;21.90
69007;BMP180;56061;51.748;19.620;2023-08-12T08:09:51;99517.40;;;21.98
69007;BMP180;56061;51.748;19.620;2023-08-12T08:12:21;99517.20;;;22.00
69007;BMP180;56061;51.748;19.620;2023-08-12T08:14:47;99519.00;;;22.18
69007;BMP180;56061;51.748;19.620;2023-08-12T08:17:14;99522.00;;;22.20
69007;BMP180;56061;51.748;19.620;2023-08-12T08:22:39;99524.40;;;22.42
69007;BMP180;56061;51.748;19.620;2023-08-12T08:25:06;99519.20;;;22.50
69007;BMP180;56061;51.748;19.620;2023-08-12T08:30:10;99525.00;;;22.60
69007;BMP180;56061;51.748;19.620;2023-08-12T08:32:37;99519.00;;;22.70
69007;BMP180;56061;51.748;19.620;2023-08-12T08:35:04;99519.80;;;22.80
69007;BMP180;56061;51.748;19.620;2023-08-12T08:37:31;99526.60;;;22.80
69007;BMP180;56061;51.748;19.620;2023-08-12T08:40:08;99524.40;;;22.80
69007;BMP180;56061;51.748;19.620;2023-08-12T08:42:40;99519.60;;;22.80
69007;BMP180;56061;51.748;19.620;2023-08-12T08:45:12;99522.80;;;22.80
69007;BMP180;56061;51.748;19.620;2023-08-12T08:47:41;99518.80;;;22.86
69007;BMP180;56061;51.748;19.620;2023-08-12T08:50:15;99516.40;;;22.90
69007;BMP180;56061;51.748;19.620;2023-08-12T08:52:42;99517.60;;;22.96
69007;BMP180;56061;51.748;19.620;2023-08-12T08:55:16;99512.20;;;23.00
69007;BMP180;56061;51.748;19.620;2023-08-12T08:57:44;99509.40;;;23.00
69007;BMP180;56061;51.748;19.620;2023-08-12T09:00:22;99511.40;;;23.00
69007;BMP180;56061;51.748;19.620;2023-08-12T09:02:55;99510.80;;;23.08
69007;BMP180;56061;51.748;19.620;2023-08-12T09:05:27;99510.20;;;23.10
69007;BMP180;56061;51.748;19.620;2023-08-12T09:07:56;99501.20;;;23.10
69007;BMP180;56061;51.748;19.620;2023-08-12T09:10:29;99497.20;;;23.10
69007;BMP180;56061;51.748;19.620;2023-08-12T09:12:56;99502.80;;;23.20
69007;BMP180;56061;51.748;19.620;2023-08-12T09:15:23;99499.00;;;23.20
69007;BMP180;56061;51.748;19.620;2023-08-12T09:17:50;99495.40;;;23.30
69007;BMP180;56061;51.748;19.620;2023-08-12T09:20:17;99496.80;;;23.30
69007;BMP180;56061;51.748;19.620;2023-08-12T09:23:02;99494.60;;;23.30
69007;BMP180;56061;51.748;19.620;2023-08-12T09:25:29;99495.60;;;23.40
69007;BMP180;56061;51.748;19.620;2023-08-12T09:27:59;99488.80;;;23.48
69007;BMP180;56061;51.748;19.620;2023-08-12T09:30:30;99486.40;;;23.50
69007;BMP180;56061;51.748;19.620;2023-08-12T09:33:02;99486.40;;;23.66
69007;BMP180;56061;51.748;19.620;2023-08-12T09:35:39;99481.00;;;23.72
69007;BMP180;56061;51.748;19.620;2023-08-12T09:38:12;99474.40;;;23.80
69007;BMP180;56061;51.748;19.620;2023-08-12T09:40:39;99471.80;;;23.82
69007;BMP180;56061;51.748;19.620;2023-08-12T09:43:10;99465.20;;;23.90
69007;BMP180;56061;51.748;19.620;2023-08-12T09:45:38;99464.60;;;23.90
69007;BMP180;56061;51.748;19.620;2023-08-12T09:48:05;99453.80;;;23.94
69007;BMP180;56061;51.748;19.620;2023-08-12T09:53:22;99459.40;;;24.20
69007;BMP180;56061;51.748;19.620;2023-08-12T09:55:53;99455.40;;;24.30
69007;BMP180;56061;51.748;19.620;2023-08-12T09:58:22;99447.00;;;24.40
69007;BMP180;56061;51.748;19.620;2023-08-12T10:00:51;99445.60;;;24.40
69007;BMP180;56061;51.748;19.620;2023-08-12T10:03:28;99442.40;;;24.40
69007;BMP180;56061;51.748;19.620;2023-08-12T10:05:55;99438.40;;;24.50
69007;BMP180;56061;51.748;19.620;2023-08-12T10:08:23;99440.00;;;24.66
69007;BMP180;56061;51.748;19.620;2023-08-12T10:10:49;99436.40;;;24.70
69007;BMP180;56061;51.748;19.620;2023-08-12T10:13:36;99435.20;;;24.78
69007;BMP180;56061;51.748;19.620;2023-08-12T10:16:03;99433.20;;;24.80
69007;BMP180;56061;51.748;19.620;2023-08-12T10:18:31;99437.40;;;24.90
69007;BMP180;56061;51.748;19.620;2023-08-12T10:20:59;99435.00;;;25.00
69007;BMP180;56061;51.748;19.620;2023-08-12T10:23:27;99426.80;;;25.00
69007;BMP180;56061;51.748;19.620;2023-08-12T10:25:54;99424.00;;;25.00
69007;BMP180;56061;51.748;19.620;2023-08-12T10:28:21;99417.40;;;25.10
69007;BMP180;56061;51.748;19.620;2023-08-12T10:30:48;99415.00;;;25.18
69007;BMP180;56061;51.748;19.620;2023-08-12T10:33:16;99416.60;;;25.20
69007;BMP180;56061;51.748;19.620;2023-08-12T10:35:48;99416.80;;;25.30
69007;BMP180;56061;51.748;19.620;2023-08-12T10:38:20;99417.00;;;25.40
69007;BMP180;56061;51.748;19.620;2023-08-12T10:40:47;99419.40;;;25.44
69007;BMP180;56061;51.748;19.620;2023-08-12T10:43:14;99416.20;;;25.50
69007;BMP180;56061;51.748;19.620;2023-08-12T10:48:25;99410.20;;;25.60
69007;BMP180;56061;51.748;19.620;2023-08-12T10:51:02;99408.20;;;25.70
69007;BMP180;56061;51.748;19.620;2023-08-12T10:53:32;99402.60;;;25.80
69007;BMP180;56061;51.748;19.620;2023-08-12T10:56:03;99401.40;;;25.80
69007;BMP180;56061;51.748;19.620;2023-08-12T10:58:45;99403.80;;;25.80
69007;BMP180;56061;51.748;19.620;2023-08-12T11:01:16;99406.00;;;25.80
69007;BMP180;56061;51.748;19.620;2023-08-12T11:03:43;99407.80;;;25.80
69007;BMP180;56061;51.748;19.620;2023-08-12T11:06:11;99406.60;;;25.80
69007;BMP180;56061;51.748;19.620;2023-08-12T11:11:23;99408.40;;;25.90
69007;BMP180;56061;51.748;19.620;2023-08-12T11:13:56;99405.20;;;25.90
69007;BMP180;56061;51.748;19.620;2023-08-12T11:16:37;99409.20;;;26.00
69007;BMP180;56061;51.748;19.620;2023-08-12T11:19:04;99396.80;;;26.00
69007;BMP180;56061;51.748;19.620;2023-08-12T11:21:31;99398.60;;;26.10
69007;BMP180;56061;51.748;19.620;2023-08-12T11:23:59;99397.20;;;26.10
69007;BMP180;56061;51.748;19.620;2023-08-12T11:26:25;99390.40;;;26.20
69007;BMP180;56061;51.748;19.620;2023-08-12T11:28:53;99379.60;;;26.30
69007;BMP180;56061;51.748;19.620;2023-08-12T11:31:21;99385.00;;;26.40
69007;BMP180;56061;51.748;19.620;2023-08-12T11:33:49;99376.20;;;26.50
69007;BMP180;56061;51.748;19.620;2023-08-12T11:36:16;99372.00;;;26.54
69007;BMP180;56061;51.748;19.620;2023-08-12T11:38:43;99370.60;;;26.60
69007;BMP180;56061;51.748;19.620;2023-08-12T11:41:09;99367.40;;;26.70
69007;BMP180;56061;51.748;19.620;2023-08-12T11:43:40;99363.80;;;26.80
69007;BMP180;56061;51.748;19.620;2023-08-12T11:46:07;99359.60;;;26.80
69007;BMP180;56061;51.748;19.620;2023-08-12T11:48:33;99357.40;;;26.90
69007;BMP180;56061;51.748;19.620;2023-08-12T11:51:00;99356.80;;;27.00
69007;BMP180;56061;51.748;19.620;2023-08-12T11:53:27;99356.40;;;27.10
69007;BMP180;56061;51.748;19.620;2023-08-12T11:55:53;99352.80;;;27.10
69007;BMP180;56061;51.748;19.620;2023-08-12T11:58:20;99351.40;;;27.10
69007;BMP180;56061;51.748;19.620;2023-08-12T12:00:47;99349.80;;;27.20
69007;BMP180;56061;51.748;19.620;2023-08-12T12:03:16;99343.20;;;27.20
69007;BMP180;56061;51.748;19.620;2023-08-12T12:05:46;99342.20;;;27.20
69007;BMP180;56061;51.748;19.620;2023-08-12T12:08:14;99345.20;;;27.30
69007;BMP180;56061;51.748;19.620;2023-08-12T12:10:41;99341.60;;;27.32
69007;BMP180;56061;51.748;19.620;2023-08-12T12:13:09;99336.80;;;27.40
69007;BMP180;56061;51.748;19.620;2023-08-12T12:18:12;99329.20;;;27.52
69007;BMP180;56061;51.748;19.620;2023-08-12T12:23:09;99328.80;;;27.70
69007;BMP180;56061;51.748;19.620;2023-08-12T12:25:36;99327.00;;;27.70
69007;BMP180;56061;51.748;19.620;2023-08-12T12:28:03;99327.40;;;27.70
69007;BMP180;56061;51.748;19.620;2023-08-12T12:30:30;99328.40;;;27.80
69007;BMP180;56061;51.748;19.620;2023-08-12T12:32:57;99332.80;;;27.80
69007;BMP180;56061;51.748;19.620;2023-08-12T12:35:24;99331.60;;;27.80
69007;BMP180;56061;51.748;19.620;2023-08-12T12:37:51;99326.00;;;27.80
69007;BMP180;56061;51.748;19.620;2023-08-12T12:40:17;99322.60;;;27.80
69007;BMP180;56061;51.748;19.620;2023-08-12T12:42:44;99324.20;;;27.88
69007;BMP180;56061;51.748;19.620;2023-08-12T12:45:10;99321.80;;;27.90
69007;BMP180;56061;51.748;19.620;2023-08-12T12:47:37;99321.40;;;27.92
69007;BMP180;56061;51.748;19.620;2023-08-12T12:50:05;99319.60;;;28.00
69007;BMP180;56061;51.748;19.620;2023-08-12T12:52:32;99316.00;;;28.10
69007;BMP180;56061;51.748;19.620;2023-08-12T12:54:59;99312.60;;;28.30
69007;BMP180;56061;51.748;19.620;2023-08-12T12:57:26;99311.80;;;28.40
69007;BMP180;56061;51.748;19.620;2023-08-12T12:59:53;99304.60;;;28.50
69007;BMP180;56061;51.748;19.620;2023-08-12T13:02:19;99297.60;;;28.60
69007;BMP180;56061;51.748;19.620;2023-08-12T13:04:48;99297.80;;;28.70
69007;BMP180;56061;51.748;19.620;2023-08-12T13:07:16;99290.00;;;28.70
69007;BMP180;56061;51.748;19.620;2023-08-12T13:09:42;99288.80;;;28.80
69007;BMP180;56061;51.748;19.620;2023-08-12T13:12:09;99288.80;;;28.80
69007;BMP180;56061;51.748;19.620;2023-08-12T13:14:36;99287.80;;;28.90
69007;BMP180;56061;51.748;19.620;2023-08-12T13:17:03;99288.40;;;29.00
69007;BMP180;56061;51.748;19.620;2023-08-12T13:19:38;99281.40;;;29.10
69007;BMP180;56061;51.748;19.620;2023-08-12T13:22:05;99279.20;;;29.20
69007;BMP180;56061;51.748;19.620;2023-08-12T13:24:31;99279.00;;;29.20
69007;BMP180;56061;51.748;19.620;2023-08-12T13:26:58;99281.00;;;29.26
69007;BMP180;56061;51.748;19.620;2023-08-12T13:32:09;99279.20;;;29.40
69007;BMP180;56061;51.748;19.620;2023-08-12T13:34:36;99278.20;;;29.50
69007;BMP180;56061;51.748;19.620;2023-08-12T13:37:27;99282.80;;;29.52
69007;BMP180;56061;51.748;19.620;2023-08-12T13:39:54;99278.20;;;29.60
69007;BMP180;56061;51.748;19.620;2023-08-12T13:42:31;99280.20;;;29.70
69007;BMP180;56061;51.748;19.620;2023-08-12T13:48:07;99274.60;;;29.90
69007;BMP180;56061;51.748;19.620;2023-08-12T13:50:34;99272.60;;;29.90
69007;BMP180;56061;51.748;19.620;2023-08-12T13:53:01;99271.00;;;30.00
69007;BMP180;56061;51.748;19.620;2023-08-12T13:55:28;99267.80;;;30.00
69007;BMP180;56061;51.748;19.620;2023-08-12T13:57:54;99269.00;;;30.00
69007;BMP180;56061;51.748;19.620;2023-08-12T14:00:24;99266.00;;;30.02
69007;BMP180;56061;51.748;19.620;2023-08-12T14:02:51;99263.00;;;30.20
69007;BMP180;56061;51.748;19.620;2023-08-12T14:05:18;99253.00;;;30.30
69007;BMP180;56061;51.748;19.620;2023-08-12T14:08:13;99245.60;;;30.40
69007;BMP180;56061;51.748;19.620;2023-08-12T14:10:40;99241.60;;;30.56
69007;BMP180;56061;51.748;19.620;2023-08-12T14:13:06;99243.00;;;30.60
69007;BMP180;56061;51.748;19.620;2023-08-12T14:21:34;99238.40;;;30.60
69007;BMP180;56061;51.748;19.620;2023-08-12T14:24:01;99237.60;;;30.60
69007;BMP180;56061;51.748;19.620;2023-08-12T14:27:08;99238.00;;;30.70
69007;BMP180;56061;51.748;19.620;2023-08-12T14:29:34;99234.20;;;30.70
69007;BMP180;56061;51.748;19.620;2023-08-12T14:32:10;99232.00;;;30.80
69007;BMP180;56061;51.748;19.620;2023-08-12T14:37:14;99231.80;;;30.90
69007;BMP180;56061;51.748;19.620;2023-08-12T14:39:41;99228.40;;;31.00
69007;BMP180;56061;51.748;19.620;2023-08-12T14:42:08;99225.80;;;31.00
69007;BMP180;56061;51.748;19.620;2023-08-12T14:44:43;99222.00;;;31.06
69007;BMP180;56061;51.748;19.620;2023-08-12T14:47:17;99217.00;;;31.22
69007;BMP180;56061;51.748;19.620;2023-08-12T14:49:45;99216.80;;;31.40
69007;BMP180;56061;51.748;19.620;2023-08-12T14:52:22;99211.40;;;31.50